createdAt,value
2023-02-27T00:03:02.480Z,-0.65
2023-02-27T00:08:09.897Z,-0.68
2023-02-27T00:13:17.171Z,-0.66
2023-02-27T00:18:24.875Z,-0.66
2023-02-27T00:23:32.261Z,-0.69
2023-02-27T00:28:40.043Z,-0.71
2023-02-27T00:33:47.732Z,-0.72
2023-02-27T00:38:55.519Z,-0.74
2023-02-27T00:44:03.404Z,-0.77
2023-02-27T00:49:11.017Z,-0.78
2023-02-27T00:54:18.720Z,-0.79
2023-02-27T00:59:26.490Z,-0.79
2023-02-27T01:04:35.075Z,-0.77
2023-02-27T01:09:42.602Z,-0.73
2023-02-27T01:14:50.156Z,-0.72
2023-02-27T01:19:57.693Z,-0.75
2023-02-27T01:25:05.701Z,-0.77
2023-02-27T01:30:15.912Z,-0.78
2023-02-27T01:35:23.194Z,-0.80
2023-02-27T01:40:29.426Z,-0.84
2023-02-27T01:45:41.129Z,-0.87
2023-02-27T01:50:54.887Z,-0.88
2023-02-27T01:56:07.544Z,-0.90
2023-02-27T02:01:15.334Z,-0.92
2023-02-27T02:06:24.392Z,-0.92
2023-02-27T02:11:31.981Z,-0.93
2023-02-27T02:16:54.779Z,-0.95
2023-02-27T02:22:37.857Z,-0.97
2023-02-27T02:28:02.301Z,-1.02
2023-02-27T02:33:36.936Z,-1.05
2023-02-27T02:38:58.665Z,-1.06
2023-02-27T02:44:13.437Z,-1.09
2023-02-27T02:49:29.792Z,-1.12
2023-02-27T02:54:43.576Z,-1.13
2023-02-27T02:59:58.519Z,-1.13
2023-02-27T03:05:11.347Z,-1.16
2023-02-27T03:10:22.731Z,-1.21
2023-02-27T03:15:32.927Z,-1.22
2023-02-27T03:20:44.100Z,-1.19
2023-02-27T03:25:52.990Z,-1.18
2023-02-27T03:31:09.025Z,-1.18
2023-02-27T03:36:27.811Z,-1.17
2023-02-27T03:41:39.941Z,-1.18
2023-02-27T03:46:47.330Z,-1.17
2023-02-27T03:51:55.339Z,-1.16
2023-02-27T03:57:05.863Z,-1.13
2023-02-27T04:02:13.486Z,-1.13
2023-02-27T04:07:32.375Z,-1.11
2023-02-27T04:13:07.092Z,-1.11
2023-02-27T04:18:26.596Z,-1.11
2023-02-27T04:23:41.506Z,-1.12
2023-02-27T04:28:58.325Z,-1.11
2023-02-27T04:34:13.991Z,-1.11
2023-02-27T04:39:27.870Z,-1.10
2023-02-27T04:44:38.142Z,-1.10
2023-02-27T04:49:48.960Z,-1.09
2023-02-27T04:55:01.128Z,-1.08
2023-02-27T05:00:14.015Z,-1.06
2023-02-27T05:05:26.608Z,-1.04
2023-02-27T05:10:41.542Z,-1.03
2023-02-27T05:15:51.296Z,-1.01
2023-02-27T05:21:07.334Z,-1.00
2023-02-27T05:26:21.157Z,-0.98
2023-02-27T05:31:36.774Z,-0.98
2023-02-27T05:36:49.552Z,-0.97
2023-02-27T05:42:01.600Z,-0.97
2023-02-27T05:47:13.578Z,-0.98
2023-02-27T05:52:24.546Z,-0.96
2023-02-27T05:57:37.613Z,-0.96
2023-02-27T06:02:46.329Z,-0.99
2023-02-27T06:07:54.256Z,-0.99
2023-02-27T06:13:01.693Z,-0.98
2023-02-27T06:18:10.925Z,-1.00
2023-02-27T06:23:19.136Z,-0.98
2023-02-27T06:28:26.458Z,-0.99
2023-02-27T06:33:33.837Z,-1.00
2023-02-27T06:38:41.329Z,-0.99
2023-02-27T06:43:49.047Z,-1.00
2023-02-27T06:48:56.472Z,-1.01
2023-02-27T06:54:03.669Z,-0.97
2023-02-27T06:59:09.763Z,-0.93
2023-02-27T07:04:18.983Z,-0.90
2023-02-27T07:09:26.406Z,-0.86
2023-02-27T07:14:34.022Z,-0.83
2023-02-27T07:19:41.387Z,-0.78
2023-02-27T07:24:48.944Z,-0.76
2023-02-27T07:29:56.290Z,-0.67
2023-02-27T07:35:04.803Z,-0.58
2023-02-27T07:40:14.647Z,-0.50
2023-02-27T07:45:22.722Z,-0.39
2023-02-27T07:50:30.211Z,-0.27
2023-02-27T07:55:37.551Z,-0.20
2023-02-27T08:00:45.097Z,-0.13
2023-02-27T08:05:52.968Z,-0.07
2023-02-27T08:11:00.103Z,-0.06
2023-02-27T08:16:09.143Z,-0.05
2023-02-27T08:21:17.493Z,-0.11
2023-02-27T08:26:29.809Z,-0.15
2023-02-27T08:31:37.269Z,-0.13
2023-02-27T08:36:45.054Z,-0.06
2023-02-27T08:41:54.185Z,0.08
2023-02-27T08:47:02.042Z,0.18
2023-02-27T08:52:10.223Z,0.30
2023-02-27T08:57:18.260Z,0.38
2023-02-27T09:02:26.681Z,0.40
2023-02-27T09:07:36.943Z,0.52
2023-02-27T09:12:44.408Z,0.62
2023-02-27T09:17:51.621Z,0.70
2023-02-27T09:22:57.221Z,0.80
2023-02-27T09:28:04.953Z,0.85
2023-02-27T09:33:12.941Z,0.93
2023-02-27T09:38:20.370Z,1.05
2023-02-27T09:43:36.265Z,1.09
2023-02-27T09:48:49.143Z,0.90
2023-02-27T09:54:00.410Z,0.70
2023-02-27T09:59:17.890Z,0.64
2023-02-27T10:04:32.838Z,0.59
2023-02-27T10:09:52.641Z,0.44
2023-02-27T10:15:06.044Z,0.32
2023-02-27T10:20:23.782Z,0.27
2023-02-27T10:25:36.482Z,0.33
2023-02-27T10:30:46.181Z,0.28
2023-02-27T10:35:54.098Z,0.19
2023-02-27T10:41:02.988Z,0.12
2023-02-27T10:46:17.159Z,0.03
2023-02-27T10:51:28.366Z,-0.04
2023-02-27T10:56:37.364Z,-0.04
2023-02-27T11:01:53.147Z,-0.03
2023-02-27T11:07:03.185Z,-0.05
2023-02-27T11:12:25.446Z,-0.04
2023-02-27T11:17:34.379Z,-0.02
2023-02-27T11:22:43.201Z,-0.03
2023-02-27T11:27:53.170Z,0.02
2023-02-27T11:33:02.996Z,0.07
2023-02-27T11:38:20.321Z,0.11
2023-02-27T11:43:30.796Z,0.17
2023-02-27T11:48:41.694Z,0.24
2023-02-27T11:54:15.936Z,0.18
2023-02-27T11:59:38.569Z,0.18
2023-02-27T12:04:53.444Z,0.30
2023-02-27T12:10:07.503Z,0.46
2023-02-27T12:15:25.317Z,0.54
2023-02-27T12:20:40.249Z,0.63
2023-02-27T12:25:52.920Z,0.69
2023-02-27T12:31:13.378Z,0.69
2023-02-27T12:36:20.948Z,0.72
2023-02-27T12:41:41.853Z,0.75
2023-02-27T12:46:58.476Z,0.80
2023-02-27T12:52:14.821Z,0.83
2023-02-27T12:57:38.483Z,0.88
2023-02-27T13:03:02.163Z,0.93
2023-02-27T13:08:21.223Z,0.92
2023-02-27T13:13:36.495Z,0.82
2023-02-27T13:18:49.792Z,0.81
2023-02-27T13:24:12.403Z,0.85
2023-02-27T13:29:23.810Z,0.91
2023-02-27T13:34:37.451Z,0.97
2023-02-27T13:39:59.687Z,0.99
2023-02-27T13:45:30.050Z,1.00
2023-02-27T13:50:54.648Z,1.02
2023-02-27T13:56:25.924Z,1.05
2023-02-27T14:01:35.254Z,1.06
2023-02-27T14:06:49.679Z,1.00
2023-02-27T14:12:04.992Z,1.01
2023-02-27T14:17:13.807Z,1.01
2023-02-27T14:22:48.547Z,0.94
2023-02-27T14:27:59.891Z,0.88
2023-02-27T14:33:33.350Z,0.83
2023-02-27T14:38:48.390Z,0.80
2023-02-27T14:43:58.333Z,0.82
2023-02-27T14:49:09.666Z,0.79
2023-02-27T14:54:21.583Z,0.69
2023-02-27T14:59:31.641Z,0.53
2023-02-27T15:04:38.965Z,0.43
2023-02-27T15:09:50.371Z,0.43
2023-02-27T15:14:59.803Z,0.44
2023-02-27T15:20:27.951Z,0.44
2023-02-27T15:25:38.340Z,0.41
2023-02-27T15:30:48.855Z,0.32
2023-02-27T15:35:57.074Z,0.20
2023-02-27T15:41:05.769Z,0.16
2023-02-27T15:46:13.626Z,0.10
2023-02-27T15:51:21.412Z,-0.01
2023-02-27T15:56:34.647Z,-0.13
2023-02-27T16:01:42.891Z,-0.16
2023-02-27T16:06:58.713Z,-0.11
2023-02-27T16:12:29.635Z,-0.04
2023-02-27T16:17:37.029Z,0.05
2023-02-27T16:23:04.737Z,0.04
2023-02-27T16:28:14.309Z,0.04
2023-02-27T16:33:24.735Z,-0.06
2023-02-27T16:38:32.243Z,-0.18
2023-02-27T16:43:40.211Z,-0.25
2023-02-27T16:48:47.583Z,-0.28
2023-02-27T16:53:56.042Z,-0.27
2023-02-27T16:59:04.394Z,-0.26
2023-02-27T17:04:24.992Z,-0.29
2023-02-27T17:09:33.038Z,-0.32
2023-02-27T17:14:40.420Z,-0.32
2023-02-27T17:19:48.079Z,-0.33
2023-02-27T17:24:55.721Z,-0.33
2023-02-27T17:30:02.828Z,-0.32
2023-02-27T17:35:09.540Z,-0.31
2023-02-27T17:40:16.967Z,-0.30
2023-02-27T17:45:27.271Z,-0.31
2023-02-27T17:50:34.726Z,-0.30
2023-02-27T17:55:43.406Z,-0.30
2023-02-27T18:00:50.745Z,-0.37
2023-02-27T18:05:58.627Z,-0.41
2023-02-27T18:11:10.898Z,-0.43
2023-02-27T18:16:19.038Z,-0.43
2023-02-27T18:21:26.369Z,-0.43
2023-02-27T18:26:35.290Z,-0.44
2023-02-27T18:31:44.682Z,-0.44
2023-02-27T18:36:52.928Z,-0.45
2023-02-27T18:42:00.141Z,-0.46
2023-02-27T18:47:08.170Z,-0.49
2023-02-27T18:52:15.855Z,-0.50
2023-02-27T18:57:23.393Z,-0.52
2023-02-27T19:02:29.217Z,-0.53
2023-02-27T19:07:36.805Z,-0.54
2023-02-27T19:12:44.508Z,-0.56
2023-02-27T19:17:51.912Z,-0.56
2023-02-27T19:23:00.444Z,-0.55
2023-02-27T19:28:08.347Z,-0.54
2023-02-27T19:33:15.959Z,-0.52
2023-02-27T19:38:23.628Z,-0.50
2023-02-27T19:43:31.540Z,-0.49
2023-02-27T19:48:39.175Z,-0.48
2023-02-27T19:53:48.737Z,-0.47
2023-02-27T19:58:57.889Z,-0.44
2023-02-27T20:04:06.544Z,-0.37
2023-02-27T20:09:15.825Z,-0.30
2023-02-27T20:19:32.382Z,-0.20
2023-02-27T20:24:39.774Z,-0.21
2023-02-27T20:29:48.551Z,-0.19
2023-02-27T20:34:57.092Z,-0.18
2023-02-27T20:40:05.133Z,-0.17
2023-02-27T20:45:13.630Z,-0.16
2023-02-27T20:50:21.450Z,-0.17
2023-02-27T20:55:30.736Z,-0.19
2023-02-27T21:00:38.675Z,-0.22
2023-02-27T21:05:51.588Z,-0.24
2023-02-27T21:11:01.002Z,-0.26
2023-02-27T21:16:11.235Z,-0.28
2023-02-27T21:21:23.111Z,-0.34
2023-02-27T21:26:35.065Z,-0.39
2023-02-27T21:31:45.365Z,-0.41
2023-02-27T21:36:53.839Z,-0.41
2023-02-27T21:42:01.632Z,-0.43
2023-02-27T21:47:10.417Z,-0.44
2023-02-27T21:52:18.479Z,-0.45
2023-02-27T21:57:26.195Z,-0.42
2023-02-27T22:02:33.817Z,-0.39
2023-02-27T22:07:41.452Z,-0.38
2023-02-27T22:12:49.233Z,-0.38
2023-02-27T22:17:56.723Z,-0.40
2023-02-27T22:23:04.867Z,-0.43
2023-02-27T22:28:12.246Z,-0.42
2023-02-27T22:33:19.722Z,-0.42
2023-02-27T22:38:28.011Z,-0.45
2023-02-27T22:43:36.043Z,-0.47
2023-02-27T22:48:43.388Z,-0.50
2023-02-27T22:53:49.161Z,-0.51
2023-02-27T22:58:57.346Z,-0.52
2023-02-27T23:04:07.414Z,-0.53
2023-02-27T23:09:18.243Z,-0.55
2023-02-27T23:14:26.206Z,-0.55
2023-02-27T23:19:34.408Z,-0.55
2023-02-27T23:24:42.809Z,-0.56
2023-02-27T23:29:50.078Z,-0.59
2023-02-27T23:34:57.771Z,-0.61
2023-02-27T23:40:07.021Z,-0.63
2023-02-27T23:45:24.564Z,-0.65
2023-02-27T23:50:31.212Z,-0.67
2023-02-27T23:55:39.454Z,-0.70
